METAR Data
IDs: Format: Raw Decoded Include TAF

Data at: 1519 UTC 21 Sep 2018

KPTT 211455Z AUTO 03015G20KT 10SM SCT025 17/11 A3018 RMK AO2 T01720110
KPTT 211435Z AUTO 03016G23KT 10SM OVC023 17/11 A3018 RMK AO2 T01730112
KPTT 211415Z AUTO 02016G20KT 10SM OVC021 17/12 A3018 RMK AO2 T01730124
KPTT 211355Z AUTO 02014KT 10SM OVC019 18/14 A3018 RMK AO2 T01760143
KPTT 211335Z AUTO 03016KT 10SM OVC015 18/15 A3016 RMK AO2 T01800154
KPTT 211315Z AUTO 03015G20KT 10SM SCT006 OVC013 19/17 A3016 RMK AO2 T01850171
KPTT 211255Z AUTO 02013G18KT 10SM OVC008 20/19 A3014 RMK AO2 T01970188
KPTT 211235Z AUTO 03013G16KT 10SM OVC006 20/19 A3013 RMK AO2 T01980190
KPTT 211215Z AUTO 02012KT 10SM OVC006 20/19 A3011 RMK AO2 T02000190
KPTT 211155Z AUTO 02013KT 10SM SCT004 BKN024 OVC033 20/19 A3009 RMK AO2 LTG DSNT SE 60002 70004 T02000191 10208 20197
KPTT 211135Z AUTO 01009KT 10SM SCT004 BKN026 OVC033 20/19 A3009 RMK AO2 T01990190
KPTT 211115Z AUTO 01008KT 10SM SCT004 SCT028 SCT100 20/19 A3007 RMK AO2 LTG DSNT SE T01980190
KPTT 211055Z AUTO 35006KT 10SM SCT120 20/19 A3006 RMK AO2 LTG DSNT SE P0001 T02000190
KPTT 211035Z AUTO 00000KT 10SM CLR 20/19 A3005 RMK AO2 LTG DSNT SE T02000191
KPTT 211015Z AUTO 00000KT 10SM SCT028 SCT038 BKN050 20/19 A3005 RMK AO2 LTG DSNT S T02020193
KPTT 210955Z AUTO 36006KT 10SM -RA SCT031 BKN090 OVC120 20/19 A3006 RMK AO2 LTG DSNT S P0001 T02010192
KPTT 210935Z AUTO 05006KT 10SM BKN090 OVC120 20/20 A3005 RMK AO2 T02030195
KPTT 210915Z AUTO 06006KT 10SM OVC090 21/20 A3004 RMK AO2 LTG DSNT E T02050195
KPTT 210855Z AUTO 03009KT 10SM OVC080 20/19 A3004 RMK AO2 LTG DSNT E AND SE T02020193
KPTT 210835Z AUTO 04007KT 10SM OVC080 21/20 A3001 RMK AO2 LTG DSNT E T02050195
KPTT 210815Z AUTO 06005KT 10SM OVC090 21/20 A3000 RMK AO2 T02060197
KPTT 210755Z AUTO 00000KT 10SM BKN090 OVC120 21/20 A3000 RMK AO2 LTG DSNT NE AND E T02060197
KPTT 210735Z AUTO 08004KT 10SM OVC100 21/20 A2998 RMK AO2 T02070197
KPTT 210715Z AUTO 13006KT 10SM OVC100 21/20 A2997 RMK AO2 LTG DSNT E THRU SW T02050196
KPTT 210655Z AUTO 15004KT 10SM -DZ SCT025 BKN100 OVC120 20/20 A2997 RMK AO2 LTG DSNT E THRU S T02030195
KPTT 210635Z AUTO 16006KT 10SM -RA SCT025 SCT044 BKN120 21/20 A2997 RMK AO2 LTG DSNT E THRU S T02060197
KPTT 210615Z AUTO 12008G15KT 10SM BKN120 21/19 A2995 RMK AO2 LTG DSNT E THRU S T02080188
KPTT 210555Z AUTO 13013G18KT 10SM VCTS SCT055 BKN100 BKN120 21/20 A2995 RMK AO2 LTG DSNT ALQS 60002 T02050195 10307 20205 403420205
KPTT 210535Z AUTO 16008KT 10SM VCTS BKN055 21/20 A2998 RMK AO2 LTG DSNT SE THRU SW T02100200
KPTT 210515Z AUTO 12008KT 10SM SCT065 21/20 A2995 RMK AO2 LTG DSNT SE AND SW T02100200
KPTT 210455Z AUTO 10006KT 10SM CLR 21/20 A2994 RMK AO2 LTG DSNT SE AND S T02110202
KPTT 210435Z AUTO 10005KT 10SM SCT060 21/20 A2993 RMK AO2 T02120202
KPTT 210415Z AUTO 11004KT 10SM VCTS SCT060 SCT070 SCT120 21/20 A2994 RMK AO2 LTG DSNT SE T02120198
KPTT 210355Z AUTO 08006KT 10SM SCT016 SCT040 BKN120 21/20 A2994 RMK AO2 LTG DSNT E AND SE P0001 T02140199
KPTT 210335Z AUTO 00000KT 10SM -RA BKN060 OVC080 22/20 A2994 RMK AO2 LTG DSNT N AND SE T02200195
KPTT 210315Z AUTO 00000KT 10SM SCT070 BKN080 BKN090 22/20 A2994 RMK AO2 LTG DSNT E THRU S T02180195
KPTT 210255Z AUTO 07004KT 10SM SCT070 SCT080 BKN090 22/19 A2993 RMK AO2 LTG DSNT E S AND W P0001 60001 T02190194
KPTT 210235Z AUTO 02005KT 10SM SCT018 SCT034 SCT065 22/20 A2991 RMK AO2 LTG DSNT NE P0001 T02230199
KPTT 210215Z AUTO 34004KT 10SM -RA SCT020 SCT037 BKN065 23/19 A2991 RMK AO2 LTG DSNT S T02260191
KPTT 210155Z AUTO 33008KT 10SM RA SCT025 OVC065 23/19 A2988 RMK AO2 LTG DSNT SE T02280188
KPTT 210135Z AUTO 33008KT 7SM BKN070 OVC080 24/18 A2988 RMK AO2 T02360181
KPTT 210115Z AUTO 33009KT 10SM BKN070 OVC090 25/17 A2986 RMK AO2 T02450172
KPTT 210055Z AUTO 32014KT 7SM BKN070 OVC080 25/17 A2985 RMK AO2 LTG DSNT NE T02520170
KPTT 210035Z AUTO 31010G24KT 10SM SCT070 BKN080 27/16 A2984 RMK AO2 T02670163
KPTT 210015Z AUTO 19015KT 10SM CLR 30/16 A2980 RMK AO2 LTG DSNT N T03000160
KPTT 202355Z AUTO 19018KT 10SM CLR 31/16 A2979 RMK AO2 T03080159 10342 20308
KPTT 202335Z AUTO 19019G28KT 10SM CLR 32/16 A2978 RMK AO2 T03190157
KPTT 202315Z AUTO 19020G26KT 10SM CLR 33/14 A2977 RMK AO2 T03270143
KPTT 202255Z AUTO 20020G28KT 10SM CLR 33/13 A2976 RMK AO2 T03300134
KPTT 202235Z AUTO 20021G28KT 10SM SCT075 33/14 A2976 RMK AO2 T03320136
KPTT 202215Z AUTO 18024G30KT 10SM BKN075 34/14 A2976 RMK AO2 T03390143
KPTT 202155Z AUTO 19019G29KT 10SM SCT075 33/14 A2975 RMK AO2 T03290140
KPTT 202135Z AUTO 18020G25KT 10SM SCT080 SCT085 34/14 A2975 RMK AO2 T03410143
KPTT 202115Z AUTO 19023G27KT 10SM CLR 33/13 A2976 RMK AO2 T03340134
KPTT 202055Z AUTO 19020G28KT 10SM SCT075 34/14 A2977 RMK AO2 T03370138
KPTT 202035Z AUTO 19023G28KT 10SM CLR 34/14 A2978 RMK AO2 T03410140
KPTT 202015Z AUTO 20019G27KT 10SM CLR 34/14 A2978 RMK AO2 T03390144
KPTT 201955Z AUTO 18018G26KT 10SM CLR 34/15 A2979 RMK AO2 T03380147
KPTT 201935Z AUTO 19023G27KT 10SM CLR 34/15 A2980 RMK AO2 T03360147
KPTT 201915Z AUTO 20019G26KT 10SM CLR 33/15 A2981 RMK AO2 T03320150
KPTT 201855Z AUTO 20022G26KT 10SM CLR 33/16 A2982 RMK AO2 T03300159
KPTT 201835Z AUTO 20023G27KT 10SM CLR 33/16 A2983 RMK AO2 T03250158
KPTT 201815Z AUTO 21017G26KT 10SM CLR 32/16 A2984 RMK AO2 T03220164
KPTT 201755Z AUTO 21014G23KT 10SM CLR 32/17 A2985 RMK AO2 T03190168 10319 20217
KPTT 201735Z AUTO 20021G30KT 10SM CLR 32/16 A2985 RMK AO2 T03170162
KPTT 201715Z AUTO 22022G28KT 10SM CLR 31/16 A2986 RMK AO2 T03110156
KPTT 201655Z AUTO 22021G27KT 10SM CLR 31/16 A2987 RMK AO2 T03060159
KPTT 201635Z AUTO 20022G26KT 10SM CLR 30/17 A2987 RMK AO2 T03040170
KPTT 201615Z AUTO 20019G26KT 10SM CLR 29/17 A2988 RMK AO2 T02940172
KPTT 201555Z AUTO 21017KT 10SM CLR 29/18 A2988 RMK AO2 T02900177
KPTT 201535Z AUTO 21021G24KT 10SM CLR 28/18 A2988 RMK AO2 T02810175
KPTT 201515Z AUTO 21018G30KT 10SM CLR 27/17 A2988 RMK AO2 T02730174
KPTT 201455Z AUTO 20021G26KT 10SM CLR 27/18 A2988 RMK AO2 T02670176
KPTT 201435Z AUTO 21013KT 10SM CLR 26/18 A2989 RMK AO2 T02560180
KPTT 201415Z AUTO 20014KT 10SM CLR 24/18 A2988 RMK AO2 T02440181
KPTT 201355Z AUTO 19014G17KT 10SM CLR 24/18 A2989 RMK AO2 T02370181
KPTT 201335Z AUTO 19014KT 10SM CLR 23/18 A2988 RMK AO2 T02300181
KPTT 201315Z AUTO 19013KT 10SM CLR 23/18 A2988 RMK AO2 T02250180
KPTT 201255Z AUTO 18014KT 10SM CLR 22/18 A2987 RMK AO2 T02220180
KPTT 201235Z AUTO 19013KT 10SM CLR 22/18 A2987 RMK AO2 T02180180
KPTT 201215Z AUTO 18014KT 10SM CLR 22/18 A2986 RMK AO2 T02180180
KPTT 201155Z AUTO 18014G18KT 10SM CLR 22/18 A2986 RMK AO2 T02200177 10251 20220
KPTT 201135Z AUTO 18014KT 10SM CLR 22/18 A2985 RMK AO2 T02230177
KPTT 201115Z AUTO 18011KT 10SM CLR 22/18 A2985 RMK AO2 T02220177
KPTT 201055Z AUTO 17012KT 10SM CLR 23/18 A2985 RMK AO2 T02250177
KPTT 201035Z AUTO 18011KT 10SM CLR 22/18 A2985 RMK AO2 T02220179
KPTT 201015Z AUTO 17011KT 10SM CLR 23/18 A2985 RMK AO2 T02260180
KPTT 200955Z AUTO 18013KT 10SM CLR 23/18 A2984 RMK AO2 T02270179
KPTT 200935Z AUTO 18011KT 10SM CLR 23/18 A2985 RMK AO2 T02280180
KPTT 200915Z AUTO 18013KT 10SM CLR 23/18 A2985 RMK AO2 T02280181
KPTT 200855Z AUTO 18013KT 10SM CLR 24/18 A2985 RMK AO2 T02350181
KPTT 200835Z AUTO 17013G19KT 10SM CLR 24/18 A2985 RMK AO2 T02370181
KPTT 200815Z AUTO 18014KT 10SM CLR 24/18 A2985 RMK AO2 T02380181
KPTT 200755Z AUTO 18016G20KT 10SM CLR 24/18 A2985 RMK AO2 T02420181
KPTT 200735Z AUTO 17016G22KT 10SM CLR 25/18 A2985 RMK AO2 T02450180
KPTT 200715Z AUTO 18016G21KT 10SM CLR 25/18 A2985 RMK AO2 T02470181
KPTT 200655Z AUTO 18017G23KT 10SM CLR 25/18 A2985 RMK AO2 T02500180
KPTT 200635Z AUTO 18015G19KT 10SM CLR 25/18 A2986 RMK AO2 T02500181
KPTT 200615Z AUTO 17014G19KT 10SM CLR 25/18 A2986 RMK AO2 T02500181
KPTT 200555Z AUTO 17014KT 10SM CLR 25/18 A2987 RMK AO2 T02510181 10315 20251 403390210
KPTT 200535Z AUTO 17014G18KT 10SM CLR 25/18 A2987 RMK AO2 T02520181
KPTT 200515Z AUTO 17013G17KT 10SM CLR 26/18 A2987 RMK AO2 T02550180
KPTT 200455Z AUTO 17013G19KT 10SM CLR 26/18 A2987 RMK AO2 T02600178
KPTT 200435Z AUTO 17015G19KT 10SM CLR 26/18 A2987 RMK AO2 T02610177
KPTT 200415Z AUTO 17016G20KT 10SM CLR 26/18 A2987 RMK AO2 T02640176
KPTT 200355Z AUTO 17016G22KT 10SM CLR 27/18 A2987 RMK AO2 T02660175
KPTT 200335Z AUTO 17014G20KT 10SM CLR 27/17 A2986 RMK AO2 T02680172